Time;durP1;ratioP1;P1;durP2;ratioP2;P2;SDS_P1;SDS_P2;PMS_P1;PMS_P2;Temp;Humidity;BMP_temperature;BMP_pressure;BME280_temperature;BME280_humidity;BME280_pressure;Samples;Min_cycle;Max_cycle;Signal;HPM_P1;HPM_P2
2021/01/13 00:00:41;;;;;;;9.77;1.50;;;5.90;99.90;;;;;;4977919;28;20213;-74
2021/01/13 00:03:07;;;;;;;13.63;1.23;;;5.90;99.90;;;;;;4956378;28;20206;-73
2021/01/13 00:05:33;;;;;;;12.80;1.50;;;5.80;99.90;;;;;;4972872;28;20202;-74
2021/01/13 00:08:01;;;;;;;14.38;1.50;;;5.80;99.90;;;;;;4974240;28;20678;-73
2021/01/13 00:10:28;;;;;;;12.75;1.67;;;5.80;99.90;;;;;;4972660;28;20201;-73
2021/01/13 00:12:54;;;;;;;17.08;2.30;;;5.80;99.90;;;;;;4985708;28;20212;-73
2021/01/13 00:15:20;;;;;;;10.95;1.30;;;5.80;99.90;;;;;;4982035;28;20611;-74
2021/01/13 00:17:48;;;;;;;12.68;1.65;;;5.80;99.90;;;;;;4973780;28;20224;-73
2021/01/13 00:20:14;;;;;;;16.10;1.67;;;5.80;99.90;;;;;;4973164;28;20216;-73
2021/01/13 00:22:41;;;;;;;12.05;1.70;;;5.80;99.90;;;;;;4973813;28;20206;-74
2021/01/13 00:25:09;;;;;;;16.15;1.83;;;5.80;99.90;;;;;;4973281;28;20744;-73
2021/01/13 00:27:36;;;;;;;13.52;1.88;;;5.80;99.90;;;;;;4973482;28;20197;-74
2021/01/13 00:30:05;;;;;;;18.63;1.80;;;5.80;99.90;;;;;;4971901;28;20256;-73
2021/01/13 00:32:31;;;;;;;12.23;1.90;;;5.80;99.90;;;;;;4973809;28;20202;-73
2021/01/13 00:34:58;;;;;;;17.15;2.20;;;5.90;99.90;;;;;;4972594;28;20202;-73
2021/01/13 00:37:24;;;;;;;20.55;2.22;;;5.90;99.90;;;;;;4973614;28;20613;-74
2021/01/13 00:39:50;;;;;;;16.42;1.60;;;5.90;99.90;;;;;;4972496;28;20658;-74
2021/01/13 00:42:19;;;;;;;13.23;2.00;;;5.90;99.90;;;;;;4973671;28;20333;-72
2021/01/13 00:44:45;;;;;;;27.52;2.15;;;5.90;99.90;;;;;;4971644;28;20202;-73
2021/01/13 00:47:14;;;;;;;14.90;2.20;;;5.90;99.90;;;;;;4953899;28;20541;-74
2021/01/13 00:49:40;;;;;;;15.90;2.00;;;5.90;99.90;;;;;;4972859;28;20210;-74
2021/01/13 00:52:08;;;;;;;20.65;2.10;;;6.00;99.90;;;;;;4991447;28;20193;-73
2021/01/13 00:54:35;;;;;;;16.30;1.65;;;5.90;99.90;;;;;;4975944;28;20251;-74
2021/01/13 00:57:02;;;;;;;14.93;2.00;;;6.00;99.90;;;;;;4972956;28;20686;-74
2021/01/13 00:59:29;;;;;;;16.20;2.17;;;6.00;99.90;;;;;;4971262;28;20209;-74
2021/01/13 01:01:55;;;;;;;14.65;1.83;;;6.00;99.90;;;;;;4971191;28;20654;-73
2021/01/13 01:04:22;;;;;;;19.40;2.00;;;6.00;99.90;;;;;;4972155;28;20233;-74
2021/01/13 01:06:49;;;;;;;10.25;1.52;;;6.00;99.90;;;;;;4973309;28;20546;-73
2021/01/13 01:09:16;;;;;;;15.50;1.83;;;6.00;99.90;;;;;;4972131;28;20197;-74
2021/01/13 01:11:43;;;;;;;26.52;2.10;;;6.00;99.90;;;;;;4972563;28;20209;-74
2021/01/13 01:14:11;;;;;;;22.38;2.10;;;6.00;99.90;;;;;;4972256;28;20256;-73
2021/01/13 01:16:40;;;;;;;17.33;2.15;;;6.00;99.90;;;;;;4972693;28;20636;-74
2021/01/13 01:19:08;;;;;;;16.75;1.60;;;6.00;99.90;;;;;;4972376;28;20268;-73
2021/01/13 01:21:38;;;;;;;19.60;1.73;;;6.00;99.90;;;;;;4973015;28;20206;-73
2021/01/13 01:24:05;;;;;;;12.98;1.90;;;6.00;99.90;;;;;;4972373;28;20197;-73
2021/01/13 01:26:32;;;;;;;16.98;1.80;;;6.00;99.90;;;;;;4971999;28;20209;-73
2021/01/13 01:28:58;;;;;;;15.65;1.73;;;6.00;99.90;;;;;;4972080;28;20198;-73
2021/01/13 01:31:24;;;;;;;27.98;1.80;;;6.00;99.90;;;;;;4972492;28;20194;-74
2021/01/13 01:33:52;;;;;;;10.85;1.23;;;6.00;99.90;;;;;;4971988;28;20214;-74
2021/01/13 01:36:18;;;;;;;10.85;1.70;;;6.10;99.90;;;;;;4971475;28;20205;-73
2021/01/13 01:38:44;;;;;;;13.60;1.50;;;6.00;99.90;;;;;;4971979;28;20229;-74
2021/01/13 01:41:15;;;;;;;17.48;2.05;;;6.00;99.90;;;;;;4981816;28;20193;-74
2021/01/13 01:43:44;;;;;;;10.65;1.33;;;6.00;99.90;;;;;;4954926;28;20658;-73
2021/01/13 01:46:11;;;;;;;13.95;1.25;;;6.00;99.90;;;;;;4972686;28;20213;-74
2021/01/13 01:48:49;;;;;;;15.55;1.55;;;5.90;99.90;;;;;;4970775;28;20213;-74
2021/01/13 01:51:21;;;;;;;13.65;1.48;;;5.80;99.90;;;;;;4970209;28;20205;-74
2021/01/13 01:54:11;;;;;;;8.07;1.10;;;5.80;99.90;;;;;;4971693;28;20225;-74
2021/01/13 01:56:39;;;;;;;15.32;1.52;;;5.70;99.90;;;;;;4971575;28;20576;-74
2021/01/13 01:59:07;;;;;;;13.27;1.67;;;5.70;99.90;;;;;;4971149;28;20347;-73
2021/01/13 02:01:36;;;;;;;17.30;1.60;;;5.60;99.90;;;;;;4970216;28;20202;-74
2021/01/13 02:04:14;;;;;;;15.98;1.85;;;5.70;99.90;;;;;;4971304;28;20213;-72
2021/01/13 02:07:26;;;;;;;9.60;2.00;;;5.60;99.90;;;;;;4970290;28;20206;-72
2021/01/13 02:09:53;;;;;;;23.83;2.08;;;5.60;99.90;;;;;;4971409;28;20268;-74
2021/01/13 02:12:27;;;;;;;15.55;2.13;;;5.60;99.90;;;;;;4970881;28;20198;-73
2021/01/13 02:14:55;;;;;;;16.73;1.77;;;5.60;99.90;;;;;;4971700;28;20661;-73
2021/01/13 02:17:34;;;;;;;14.27;1.73;;;5.50;99.90;;;;;;4971111;28;20221;-74
2021/01/13 02:20:10;;;;;;;20.88;1.88;;;5.50;99.90;;;;;;4970446;28;20565;-74
2021/01/13 02:22:54;;;;;;;15.40;1.95;;;5.50;99.90;;;;;;4971145;28;20206;-73
2021/01/13 02:26:06;;;;;;;16.02;1.88;;;5.50;99.90;;;;;;4971897;28;20205;-74
2021/01/13 02:28:52;;;;;;;11.85;1.95;;;5.50;99.90;;;;;;4970709;28;20542;-73
2021/01/13 02:31:41;;;;;;;12.35;1.98;;;5.50;99.90;;;;;;4970163;28;20201;-75
2021/01/13 02:34:18;;;;;;;16.08;1.83;;;5.50;99.90;;;;;;4970623;28;20261;-74
2021/01/13 02:37:27;;;;;;;14.57;1.67;;;5.40;99.90;;;;;;4970034;28;20197;-74
2021/01/13 02:39:54;;;;;;;20.48;2.00;;;5.50;99.90;;;;;;4970876;28;20201;-74
2021/01/13 02:42:23;;;;;;;10.75;1.58;;;5.50;99.90;;;;;;4981880;28;20209;-73
2021/01/13 02:45:04;;;;;;;11.88;1.55;;;5.50;99.90;;;;;;4971723;28;20237;-73
2021/01/13 02:47:51;;;;;;;19.15;1.95;;;5.50;99.90;;;;;;4970453;28;20209;-73
2021/01/13 02:50:23;;;;;;;12.40;1.73;;;5.50;99.90;;;;;;4971291;28;20214;-73
2021/01/13 02:53:31;;;;;;;14.25;2.10;;;5.50;99.90;;;;;;4969923;28;20229;-75
2021/01/13 02:56:06;;;;;;;13.02;2.00;;;5.50;99.90;;;;;;4971274;28;20213;-73
2021/01/13 02:58:35;;;;;;;27.40;2.22;;;5.40;99.90;;;;;;4970412;28;20627;-73
2021/01/13 03:01:04;;;;;;;19.15;2.22;;;5.40;99.90;;;;;;4970576;28;20205;-73
2021/01/13 03:03:33;;;;;;;19.85;2.70;;;5.40;99.90;;;;;;4970474;28;20656;-74
2021/01/13 03:06:05;;;;;;;15.60;2.58;;;5.30;99.90;;;;;;4970989;28;20228;-74
2021/01/13 03:08:45;;;;;;;19.65;2.05;;;5.30;99.90;;;;;;4970388;28;20201;-73
2021/01/13 03:11:15;;;;;;;20.75;2.30;;;5.30;99.90;;;;;;4970832;28;20233;-74
2021/01/13 03:13:45;;;;;;;23.15;2.47;;;5.30;99.90;;;;;;4953214;28;20230;-73
2021/01/13 03:16:13;;;;;;;28.95;2.65;;;5.30;99.90;;;;;;4970999;28;20293;-74
2021/01/13 03:18:51;;;;;;;18.13;2.35;;;5.30;99.90;;;;;;4970175;28;20232;-74
2021/01/13 03:21:22;;;;;;;25.25;2.75;;;5.30;99.90;;;;;;4970051;28;20229;-74
2021/01/13 03:23:54;;;;;;;26.10;2.42;;;5.30;99.90;;;;;;4973514;28;20205;-73
2021/01/13 03:26:28;;;;;;;26.83;3.55;;;5.30;99.90;;;;;;4974804;28;20189;-74
2021/01/13 03:28:58;;;;;;;23.85;2.63;;;5.30;99.90;;;;;;4957538;28;20202;-73
2021/01/13 03:31:30;;;;;;;20.02;2.25;;;5.30;99.90;;;;;;4955583;28;20216;-74
2021/01/13 03:34:23;;;;;;;21.40;2.67;;;5.30;99.90;;;;;;4956687;28;20210;-74
2021/01/13 03:36:58;;;;;;;27.67;2.75;;;5.30;99.90;;;;;;4972067;28;20249;-74
2021/01/13 03:39:26;;;;;;;20.58;2.47;;;5.30;99.90;;;;;;4974628;28;20569;-74
2021/01/13 03:42:14;;;;;;;17.85;2.28;;;5.40;99.90;;;;;;4973196;28;20608;-75
2021/01/13 03:44:43;;;;;;;14.35;2.20;;;5.40;99.90;;;;;;4968330;28;20214;-75
2021/01/13 03:47:58;;;;;;;23.85;2.65;;;5.40;99.90;;;;;;4973776;28;20200;-74
2021/01/13 03:50:32;;;;;;;17.20;2.28;;;5.40;99.90;;;;;;4974826;28;20224;-74
2021/01/13 03:53:00;;;;;;;16.27;2.78;;;5.40;99.90;;;;;;4971861;28;20233;-73
2021/01/13 03:55:29;;;;;;;11.00;1.85;;;5.50;99.90;;;;;;4980346;28;20209;-73
2021/01/13 03:58:30;;;;;;;20.27;2.78;;;5.50;99.90;;;;;;4979277;28;20541;-74
2021/01/13 04:01:02;;;;;;;14.27;2.60;;;5.50;99.90;;;;;;4965497;28;20205;-75
2021/01/13 04:03:31;;;;;;;15.15;2.58;;;5.60;99.90;;;;;;4970763;28;20205;-74
2021/01/13 04:06:06;;;;;;;19.52;2.40;;;5.60;99.90;;;;;;4973614;28;20733;-73
2021/01/13 04:08:37;;;;;;;18.55;2.30;;;5.60;99.90;;;;;;4973437;28;20287;-73
2021/01/13 04:11:09;;;;;;;17.58;2.13;;;5.60;99.90;;;;;;4974943;28;20950;-73
2021/01/13 04:13:42;;;;;;;18.25;1.88;;;5.60;99.90;;;;;;4991509;28;20205;-74
2021/01/13 04:16:10;;;;;;;11.60;1.80;;;5.70;99.90;;;;;;4973079;28;20659;-73
2021/01/13 04:18:38;;;;;;;18.95;1.95;;;5.70;99.90;;;;;;4973444;28;20225;-74
2021/01/13 04:21:07;;;;;;;13.13;2.20;;;5.70;99.90;;;;;;4972435;28;20256;-73
2021/01/13 04:23:34;;;;;;;14.02;1.80;;;5.60;99.90;;;;;;4973135;28;20198;-73
2021/01/13 04:26:01;;;;;;;14.38;2.38;;;5.60;99.90;;;;;;4973558;28;20225;-73
2021/01/13 04:28:28;;;;;;;15.80;2.00;;;5.70;99.90;;;;;;4977623;28;20194;-75
2021/01/13 04:30:55;;;;;;;11.45;1.98;;;5.70;99.90;;;;;;4973133;28;20205;-73
2021/01/13 04:33:23;;;;;;;12.88;1.80;;;5.60;99.90;;;;;;4971388;28;20581;-73
2021/01/13 04:35:51;;;;;;;13.68;2.22;;;5.70;99.90;;;;;;4954847;28;20206;-73
2021/01/13 04:38:21;;;;;;;13.13;1.95;;;5.70;99.90;;;;;;4973422;28;20233;-73
2021/01/13 04:41:05;;;;;;;14.38;2.20;;;5.70;99.90;;;;;;4973064;28;20729;-73
2021/01/13 04:43:51;;;;;;;13.90;1.80;;;5.70;99.90;;;;;;4972796;28;20273;-72
2021/01/13 04:46:29;;;;;;;13.20;1.90;;;5.70;99.90;;;;;;4972137;28;20572;-73
2021/01/13 04:49:09;;;;;;;20.17;2.08;;;5.70;99.90;;;;;;4972821;28;20201;-73
2021/01/13 04:51:38;;;;;;;10.13;1.77;;;5.60;99.90;;;;;;4972260;28;20202;-73
2021/01/13 04:54:10;;;;;;;17.77;1.77;;;5.60;99.90;;;;;;4971760;28;20230;-74
2021/01/13 04:57:03;;;;;;;14.95;1.95;;;5.60;99.90;;;;;;4973374;28;20265;-73
2021/01/13 05:00:05;;;;;;;15.23;1.70;;;5.60;99.90;;;;;;4968050;28;20551;-73
2021/01/13 05:03:31;;;;;;;18.52;2.20;;;5.60;99.90;;;;;;4972374;28;20200;-73
2021/01/13 05:06:17;;;;;;;13.13;1.77;;;5.60;99.90;;;;;;4943148;28;20206;-73
2021/01/13 05:09:03;;;;;;;14.02;2.05;;;5.60;99.90;;;;;;4968875;28;20658;-73
2021/01/13 05:11:39;;;;;;;14.15;2.17;;;5.70;99.90;;;;;;4971526;28;20213;-74
2021/01/13 05:14:06;;;;;;;11.15;1.80;;;5.60;99.90;;;;;;4950942;28;20264;-73
2021/01/13 05:16:51;;;;;;;11.07;1.67;;;5.60;99.90;;;;;;4971238;28;20553;-72
2021/01/13 05:19:40;;;;;;;7.78;1.67;;;5.60;99.90;;;;;;4968998;28;20202;-74
2021/01/13 05:22:12;;;;;;;12.13;1.80;;;5.60;99.90;;;;;;4971375;28;20216;-73
2021/01/13 05:24:41;;;;;;;17.35;2.00;;;5.60;99.80;;;;;;4972272;28;20205;-73
2021/01/13 05:27:26;;;;;;;12.15;2.05;;;5.60;99.70;;;;;;4971068;28;20655;-73
2021/01/13 05:30:00;;;;;;;11.73;1.67;;;5.60;99.60;;;;;;4968700;28;20231;-74
2021/01/13 05:32:28;;;;;;;15.80;2.30;;;5.60;99.50;;;;;;4970584;28;20214;-73
2021/01/13 05:34:57;;;;;;;18.65;2.33;;;5.60;99.40;;;;;;4970419;28;20202;-73
2021/01/13 05:37:47;;;;;;;10.50;2.10;;;5.60;99.30;;;;;;4970392;28;20213;-73
2021/01/13 05:40:16;;;;;;;12.07;1.77;;;5.60;99.10;;;;;;4975056;28;20561;-74
2021/01/13 05:42:43;;;;;;;17.95;2.70;;;5.60;99.00;;;;;;4969915;28;20217;-73
2021/01/13 05:45:11;;;;;;;24.58;2.30;;;5.60;98.90;;;;;;4974632;28;20209;-73
2021/01/13 05:47:53;;;;;;;13.23;2.15;;;5.60;98.80;;;;;;4970659;28;20221;-73
2021/01/13 05:50:21;;;;;;;15.95;2.38;;;5.60;98.80;;;;;;4969290;28;20202;-73
2021/01/13 05:52:49;;;;;;;17.80;2.00;;;5.60;98.80;;;;;;4968458;28;20252;-73
2021/01/13 05:55:18;;;;;;;17.48;2.13;;;5.60;98.70;;;;;;4969957;28;20194;-73
2021/01/13 05:57:56;;;;;;;11.50;1.92;;;5.60;98.80;;;;;;4967685;28;20230;-73
2021/01/13 06:00:24;;;;;;;8.50;1.48;;;5.60;98.60;;;;;;4969174;28;20205;-73
2021/01/13 06:02:57;;;;;;;14.95;1.58;;;5.60;98.60;;;;;;4970383;28;20572;-74
2021/01/13 06:05:24;;;;;;;18.77;2.20;;;5.60;98.40;;;;;;4967861;28;20976;-75
2021/01/13 06:07:53;;;;;;;13.35;1.77;;;5.60;98.30;;;;;;4969189;28;20769;-73
2021/01/13 06:10:25;;;;;;;11.50;1.60;;;5.60;98.20;;;;;;4968832;28;20206;-73
2021/01/13 06:12:55;;;;;;;14.32;2.13;;;5.60;98.00;;;;;;4970003;28;20221;-73
2021/01/13 06:15:26;;;;;;;14.05;1.45;;;5.60;97.90;;;;;;4966001;28;20202;-74
2021/01/13 06:17:54;;;;;;;16.08;1.77;;;5.60;97.70;;;;;;4964599;28;20221;-73
2021/01/13 06:20:22;;;;;;;17.60;1.55;;;5.60;97.70;;;;;;4969875;28;20256;-74
2021/01/13 06:22:49;;;;;;;11.75;2.10;;;5.60;97.60;;;;;;4970359;28;20205;-73
2021/01/13 06:25:23;;;;;;;12.70;1.48;;;5.60;97.50;;;;;;4953981;28;20674;-73
2021/01/13 06:28:27;;;;;;;13.20;1.98;;;5.60;97.40;;;;;;4966657;28;20209;-72
2021/01/13 06:31:07;;;;;;;13.55;1.70;;;5.60;97.40;;;;;;4888975;29;20204;-71
2021/01/13 06:33:36;;;;;;;10.95;1.63;;;5.60;97.30;;;;;;4891742;29;20572;-76
2021/01/13 06:36:30;;;;;;;19.45;1.85;;;5.60;97.30;;;;;;4937677;28;20672;-73
2021/01/13 06:38:58;;;;;;;13.65;1.75;;;5.60;97.20;;;;;;4953714;28;20616;-72
2021/01/13 06:41:26;;;;;;;13.98;1.92;;;5.60;97.20;;;;;;4970558;28;20549;-73
2021/01/13 06:44:04;;;;;;;13.43;1.80;;;5.60;97.20;;;;;;4982051;28;20201;-72
2021/01/13 06:46:33;;;;;;;12.85;1.75;;;5.60;97.10;;;;;;4970569;28;20208;-72
2021/01/13 06:49:12;;;;;;;13.32;1.90;;;5.60;97.10;;;;;;4970616;28;20198;-73
2021/01/13 06:51:42;;;;;;;13.07;1.42;;;5.60;97.00;;;;;;4969979;28;20609;-73
2021/01/13 06:54:11;;;;;;;16.73;2.20;;;5.60;96.90;;;;;;4970778;28;20286;-72
2021/01/13 06:56:47;;;;;;;20.63;2.45;;;5.60;96.80;;;;;;4969488;28;20212;-73
2021/01/13 06:59:15;;;;;;;12.48;1.88;;;5.60;96.80;;;;;;4969977;28;20217;-73
2021/01/13 07:01:52;;;;;;;15.57;1.77;;;5.60;96.80;;;;;;4970060;28;20574;-72
2021/01/13 07:04:19;;;;;;;18.23;1.63;;;5.60;96.80;;;;;;4970685;28;20670;-73
2021/01/13 07:06:59;;;;;;;16.08;1.95;;;5.60;97.20;;;;;;4970135;28;20260;-72
2021/01/13 07:09:35;;;;;;;16.38;2.13;;;5.60;96.80;;;;;;4970310;28;20193;-73
2021/01/13 07:12:08;;;;;;;17.38;2.25;;;5.60;96.80;;;;;;4970594;28;20201;-72
2021/01/13 07:14:41;;;;;;;13.63;1.95;;;5.60;96.80;;;;;;4970338;28;20557;-73
2021/01/13 07:17:09;;;;;;;13.77;2.00;;;5.60;96.80;;;;;;4982138;28;20208;-73
2021/01/13 07:19:37;;;;;;;16.95;2.33;;;5.60;96.80;;;;;;4970500;28;20211;-73
2021/01/13 07:22:05;;;;;;;18.13;2.30;;;5.60;96.80;;;;;;4968202;28;20674;-72
2021/01/13 07:24:32;;;;;;;17.65;1.92;;;5.60;96.90;;;;;;4947676;28;20225;-72
2021/01/13 07:26:58;;;;;;;16.10;1.90;;;5.70;96.90;;;;;;4966566;28;20205;-72
2021/01/13 07:29:27;;;;;;;11.38;1.83;;;5.70;97.00;;;;;;4967845;28;20186;-72
2021/01/13 07:31:58;;;;;;;10.90;1.73;;;5.60;96.90;;;;;;4964708;28;20202;-73
2021/01/13 07:34:32;;;;;;;12.35;1.60;;;5.60;96.90;;;;;;4964175;28;20210;-72
2021/01/13 07:37:00;;;;;;;14.25;2.22;;;5.70;97.20;;;;;;4972864;28;20210;-71
2021/01/13 07:39:56;;;;;;;13.48;1.75;;;5.70;96.70;;;;;;4969383;28;20313;-72
2021/01/13 07:42:35;;;;;;;15.75;1.90;;;5.70;96.70;;;;;;4969882;28;20256;-71
2021/01/13 07:45:07;;;;;;;15.80;1.63;;;5.70;96.60;;;;;;4972926;28;20214;-72
2021/01/13 07:48:23;;;;;;;19.42;1.95;;;5.70;96.60;;;;;;4969574;28;21114;-72
2021/01/13 07:50:51;;;;;;;16.02;1.88;;;5.60;96.50;;;;;;4953393;28;20218;-73
2021/01/13 07:53:25;;;;;;;18.65;2.30;;;5.70;96.50;;;;;;4969498;28;20288;-71
2021/01/13 07:56:01;;;;;;;16.02;1.75;;;5.70;96.60;;;;;;4969011;28;20701;-72
2021/01/13 07:58:30;;;;;;;9.07;1.50;;;5.70;96.50;;;;;;4965626;28;20224;-71
2021/01/13 08:01:35;;;;;;;15.80;2.05;;;5.70;96.40;;;;;;4976363;28;20212;-72
2021/01/13 08:05:01;;;;;;;14.00;2.30;;;5.70;96.40;;;;;;4933145;28;20260;-74
2021/01/13 08:07:37;;;;;;;13.00;1.63;;;5.70;96.30;;;;;;4887265;29;20211;-72
2021/01/13 08:10:05;;;;;;;12.43;1.75;;;5.70;96.20;;;;;;4879686;29;20341;-71
2021/01/13 08:13:11;;;;;;;10.88;1.42;;;5.70;96.20;;;;;;4954836;28;20699;-71
2021/01/13 08:16:17;;;;;;;6.97;1.55;;;5.70;96.10;;;;;;4970018;28;20202;-71
2021/01/13 08:19:32;;;;;;;9.70;1.45;;;5.70;96.10;;;;;;4969917;28;20304;-74
2021/01/13 08:22:01;;;;;;;18.05;1.92;;;5.70;96.10;;;;;;4911487;29;20263;-71
2021/01/13 08:24:31;;;;;;;8.25;1.95;;;5.70;95.90;;;;;;4915622;29;20223;-72
2021/01/13 08:26:59;;;;;;;18.52;1.75;;;5.70;95.90;;;;;;4923119;28;20217;-72
2021/01/13 08:29:34;;;;;;;17.98;2.03;;;5.70;95.90;;;;;;4963744;28;20283;-73
2021/01/13 08:32:05;;;;;;;10.75;1.83;;;5.80;95.90;;;;;;4972720;28;20208;-74
2021/01/13 08:34:38;;;;;;;16.02;1.92;;;5.70;95.80;;;;;;4972141;28;20194;-74
2021/01/13 08:37:06;;;;;;;10.75;1.55;;;5.80;95.80;;;;;;4972480;28;20659;-73
2021/01/13 08:39:34;;;;;;;10.73;1.83;;;5.80;95.80;;;;;;4971800;28;20214;-73
2021/01/13 08:42:20;;;;;;;13.63;2.20;;;5.80;95.80;;;;;;4956863;28;20206;-74
2021/01/13 08:44:47;;;;;;;14.93;1.52;;;5.80;95.80;;;;;;4968321;28;20332;-74
2021/01/13 08:47:16;;;;;;;13.35;1.48;;;5.80;95.70;;;;;;4977764;28;20225;-74
2021/01/13 08:49:43;;;;;;;13.73;2.13;;;5.80;95.80;;;;;;4971392;28;20259;-74
2021/01/13 08:52:19;;;;;;;16.25;2.03;;;5.90;95.80;;;;;;4971014;28;20263;-73
2021/01/13 08:55:14;;;;;;;7.88;1.65;;;5.90;95.80;;;;;;4969902;28;20233;-73
2021/01/13 08:58:05;;;;;;;8.90;1.40;;;5.90;95.70;;;;;;4971812;28;20273;-74
2021/01/13 09:00:33;;;;;;;15.13;2.22;;;5.90;95.80;;;;;;4967731;28;20218;-74
2021/01/13 09:03:11;;;;;;;12.70;1.73;;;5.90;95.80;;;;;;4952068;28;20214;-74
2021/01/13 09:05:40;;;;;;;14.00;2.05;;;5.90;95.90;;;;;;4986630;28;20661;-74
2021/01/13 09:08:09;;;;;;;13.98;1.80;;;5.90;95.90;;;;;;4981088;28;20217;-74
2021/01/13 09:10:50;;;;;;;16.70;1.95;;;6.00;95.90;;;;;;4970303;28;20214;-73
2021/01/13 09:13:46;;;;;;;15.98;3.10;;;6.00;96.00;;;;;;4969611;28;20209;-73
2021/01/13 09:16:30;;;;;;;12.60;2.22;;;6.00;96.00;;;;;;4971872;28;20213;-73
2021/01/13 09:18:57;;;;;;;15.70;2.50;;;6.00;96.10;;;;;;4974718;28;20222;-74
2021/01/13 09:21:29;;;;;;;14.35;2.22;;;6.00;96.30;;;;;;4972439;28;20198;-74
2021/01/13 09:23:58;;;;;;;18.63;2.67;;;6.00;96.40;;;;;;4972143;28;20572;-77
2021/01/13 09:26:31;;;;;;;18.55;2.80;;;6.00;96.50;;;;;;4954199;28;20209;-72
2021/01/13 09:29:06;;;;;;;14.57;2.45;;;6.10;96.60;;;;;;4956215;28;20760;-73
2021/01/13 09:31:33;;;;;;;13.15;2.58;;;6.10;96.80;;;;;;4972184;28;20198;-73
2021/01/13 09:34:00;;;;;;;15.80;2.80;;;6.10;96.90;;;;;;4980291;28;20210;-72
2021/01/13 09:36:27;;;;;;;18.05;2.85;;;6.10;96.90;;;;;;4972150;28;20198;-73
2021/01/13 09:39:14;;;;;;;15.90;2.50;;;6.20;97.00;;;;;;4954319;28;20218;-73
2021/01/13 09:41:49;;;;;;;17.08;3.03;;;6.20;97.10;;;;;;4972591;28;20213;-74
2021/01/13 09:44:16;;;;;;;18.92;2.75;;;6.10;97.20;;;;;;4971416;28;20201;-74
2021/01/13 09:46:42;;;;;;;13.75;2.35;;;6.10;97.20;;;;;;4972705;28;20202;-73
2021/01/13 09:49:11;;;;;;;27.48;2.70;;;6.20;97.30;;;;;;4971776;28;20209;-73
2021/01/13 09:51:39;;;;;;;24.92;3.42;;;6.20;97.40;;;;;;4975205;28;20233;-73
2021/01/13 09:54:08;;;;;;;15.15;3.33;;;6.20;97.50;;;;;;4971077;28;20720;-74
2021/01/13 09:56:37;;;;;;;13.70;2.33;;;6.30;97.60;;;;;;4971074;28;20205;-73
2021/01/13 09:59:05;;;;;;;13.73;2.55;;;6.30;97.60;;;;;;4970709;28;20232;-74
2021/01/13 10:01:35;;;;;;;15.18;2.40;;;6.30;97.60;;;;;;4980908;28;20201;-73
2021/01/13 10:04:09;;;;;;;13.48;2.53;;;6.40;97.60;;;;;;4980440;28;20678;-73
2021/01/13 10:06:39;;;;;;;13.38;2.15;;;6.40;97.60;;;;;;4953923;28;20212;-73
2021/01/13 10:09:11;;;;;;;12.75;2.47;;;6.40;97.60;;;;;;4953692;28;20209;-74
2021/01/13 10:11:39;;;;;;;10.95;2.03;;;6.40;97.70;;;;;;4970865;28;20202;-72
2021/01/13 10:14:07;;;;;;;14.95;2.78;;;6.40;97.70;;;;;;4969761;28;20198;-73
2021/01/13 10:16:41;;;;;;;19.20;3.10;;;6.50;97.80;;;;;;4971692;28;20596;-73
2021/01/13 10:19:08;;;;;;;13.63;2.90;;;6.50;97.80;;;;;;4970880;28;20272;-73
2021/01/13 10:21:35;;;;;;;24.00;2.75;;;6.50;97.90;;;;;;4971486;28;20253;-73
2021/01/13 10:24:04;;;;;;;12.65;2.50;;;6.60;97.90;;;;;;4971253;28;20305;-73
2021/01/13 10:26:35;;;;;;;17.00;2.80;;;6.60;97.90;;;;;;4981854;28;20206;-74
2021/01/13 10:29:03;;;;;;;20.48;2.97;;;6.60;97.90;;;;;;4958137;28;20622;-73
2021/01/13 10:31:31;;;;;;;15.02;2.85;;;6.60;97.90;;;;;;4971689;28;20206;-73
2021/01/13 10:33:57;;;;;;;18.05;2.83;;;6.60;97.80;;;;;;4969831;28;20674;-73
2021/01/13 10:36:32;;;;;;;14.23;2.38;;;6.60;97.80;;;;;;4971619;28;20682;-74
2021/01/13 10:39:00;;;;;;;14.95;2.95;;;6.60;97.80;;;;;;4952947;28;20222;-73
2021/01/13 10:41:35;;;;;;;15.90;2.65;;;6.70;97.80;;;;;;4971573;28;20206;-73
2021/01/13 10:44:04;;;;;;;22.05;3.05;;;6.70;97.80;;;;;;4969665;28;20206;-73
2021/01/13 10:46:52;;;;;;;21.38;2.72;;;6.70;97.80;;;;;;4983341;28;20205;-73
2021/01/13 10:49:35;;;;;;;14.38;2.83;;;6.70;97.70;;;;;;4977371;28;20681;-73
2021/01/13 10:52:05;;;;;;;9.70;2.30;;;6.70;97.60;;;;;;4968145;28;20213;-73
2021/01/13 10:54:34;;;;;;;14.85;2.72;;;6.70;97.60;;;;;;4969471;28;20237;-73
2021/01/13 10:57:04;;;;;;;16.05;2.67;;;6.70;97.50;;;;;;4970959;28;20198;-73
2021/01/13 10:59:31;;;;;;;15.15;3.17;;;6.70;97.60;;;;;;4969445;28;20268;-73
2021/01/13 11:02:03;;;;;;;18.17;3.33;;;6.70;97.70;;;;;;4979733;28;20669;-73
2021/01/13 11:04:35;;;;;;;20.33;3.05;;;6.80;97.80;;;;;;4975411;28;20214;-73
2021/01/13 11:07:04;;;;;;;15.10;2.97;;;6.80;97.90;;;;;;4962269;28;20215;-73
2021/01/13 11:09:31;;;;;;;13.93;2.38;;;6.90;97.90;;;;;;4952851;28;20210;-73
2021/01/13 11:11:58;;;;;;;16.98;3.25;;;6.90;97.90;;;;;;4971148;28;20616;-73
2021/01/13 11:14:34;;;;;;;12.10;2.30;;;6.90;97.80;;;;;;4970248;28;20206;-73
2021/01/13 11:17:10;;;;;;;10.65;2.88;;;6.90;97.80;;;;;;4971179;28;20670;-73
2021/01/13 11:19:37;;;;;;;18.50;2.53;;;6.90;97.80;;;;;;4970402;28;20316;-73
2021/01/13 11:22:04;;;;;;;12.50;2.63;;;7.00;97.70;;;;;;4971216;28;20206;-73
2021/01/13 11:24:47;;;;;;;15.30;3.05;;;7.00;97.70;;;;;;4970053;28;20206;-73
2021/01/13 11:27:16;;;;;;;16.58;2.85;;;7.10;97.80;;;;;;4968659;28;20213;-73
2021/01/13 11:29:46;;;;;;;10.98;3.25;;;7.10;97.70;;;;;;4975607;28;20210;-74
2021/01/13 11:32:16;;;;;;;13.98;3.55;;;7.10;97.70;;;;;;4953778;28;20218;-74
2021/01/13 11:34:54;;;;;;;14.65;2.65;;;7.10;97.60;;;;;;4969423;28;20206;-73
2021/01/13 11:37:47;;;;;;;18.77;3.08;;;7.10;97.60;;;;;;4952882;28;20563;-73
2021/01/13 11:40:35;;;;;;;17.90;3.28;;;7.10;97.60;;;;;;4951432;28;20301;-72
2021/01/13 11:43:44;;;;;;;13.45;3.10;;;7.10;97.60;;;;;;4967049;28;20340;-73
2021/01/13 11:46:15;;;;;;;13.35;3.03;;;7.10;97.70;;;;;;4974771;28;20209;-73
2021/01/13 11:49:22;;;;;;;19.48;3.15;;;7.10;98.00;;;;;;4973794;28;20197;-73
2021/01/13 11:51:51;;;;;;;15.18;2.95;;;7.10;97.80;;;;;;4976352;28;20208;-73
2021/01/13 11:54:28;;;;;;;14.05;2.47;;;7.20;97.90;;;;;;4977591;28;20233;-74
2021/01/13 11:57:16;;;;;;;12.63;2.70;;;7.20;97.80;;;;;;4973611;28;20213;-73
2021/01/13 11:59:43;;;;;;;23.45;3.00;;;7.20;97.70;;;;;;4973393;28;20225;-73
2021/01/13 12:02:17;;;;;;;18.98;2.95;;;7.10;97.70;;;;;;4955377;28;20212;-73
2021/01/13 12:04:44;;;;;;;12.20;2.47;;;7.20;97.80;;;;;;4973528;28;20312;-73
2021/01/13 12:07:10;;;;;;;13.32;2.75;;;7.20;97.70;;;;;;4974425;28;20206;-73
2021/01/13 12:09:37;;;;;;;13.40;3.28;;;7.20;97.80;;;;;;4954990;28;20209;-73
2021/01/13 12:12:05;;;;;;;26.38;3.42;;;7.20;97.80;;;;;;4974273;28;20206;-73
2021/01/13 12:14:49;;;;;;;12.98;2.33;;;7.30;97.90;;;;;;4973390;28;20218;-73
2021/01/13 12:17:17;;;;;;;20.38;3.45;;;7.30;97.80;;;;;;4974316;28;20206;-73
2021/01/13 12:19:44;;;;;;;19.35;2.90;;;7.30;97.80;;;;;;4973260;28;20217;-73
2021/01/13 12:22:10;;;;;;;12.27;2.35;;;7.30;97.60;;;;;;4973953;28;20614;-73
2021/01/13 12:24:38;;;;;;;17.30;2.50;;;7.30;97.60;;;;;;4973524;28;20217;-74
2021/01/13 12:27:21;;;;;;;19.60;2.80;;;7.30;97.60;;;;;;4973763;28;20201;-74
2021/01/13 12:30:03;;;;;;;20.63;2.70;;;7.30;97.50;;;;;;4972833;28;20197;-73
2021/01/13 12:32:30;;;;;;;11.57;2.55;;;7.30;97.60;;;;;;4970307;28;20634;-74
2021/01/13 12:34:57;;;;;;;16.45;2.75;;;7.40;97.50;;;;;;4955995;28;20202;-73
2021/01/13 12:37:23;;;;;;;8.80;2.15;;;7.40;97.50;;;;;;4973740;28;20198;-73
2021/01/13 12:39:56;;;;;;;13.25;2.80;;;7.40;97.50;;;;;;4954342;28;20268;-73
2021/01/13 12:42:30;;;;;;;18.85;2.35;;;7.50;97.40;;;;;;4974403;28;20237;-72
2021/01/13 12:44:57;;;;;;;15.43;2.38;;;7.50;97.30;;;;;;4971269;28;20198;-72
2021/01/13 12:47:27;;;;;;;12.50;2.42;;;7.50;97.10;;;;;;4972539;28;20202;-72
2021/01/13 12:49:56;;;;;;;11.70;2.20;;;7.50;97.10;;;;;;4985465;28;20205;-72
2021/01/13 12:52:22;;;;;;;11.98;2.50;;;7.50;97.10;;;;;;4973346;28;20198;-72
2021/01/13 12:54:50;;;;;;;19.27;2.97;;;7.60;97.20;;;;;;4972558;28;20765;-72
2021/01/13 12:57:16;;;;;;;13.45;2.78;;;7.60;97.20;;;;;;4972676;28;20642;-71
2021/01/13 12:59:43;;;;;;;10.57;1.90;;;7.70;97.10;;;;;;4971866;28;20226;-72
2021/01/13 13:02:09;;;;;;;13.68;2.70;;;7.80;97.20;;;;;;4972223;28;20213;-72
2021/01/13 13:04:36;;;;;;;13.30;2.13;;;7.90;97.10;;;;;;4970571;28;20206;-72
2021/01/13 13:07:03;;;;;;;14.50;2.35;;;8.00;97.00;;;;;;4953993;28;20217;-72
2021/01/13 13:09:29;;;;;;;12.00;1.92;;;8.10;96.90;;;;;;4953352;28;20198;-72
2021/01/13 13:11:56;;;;;;;17.40;2.28;;;8.10;96.60;;;;;;4972202;28;20793;-72
2021/01/13 13:14:23;;;;;;;16.27;2.10;;;8.20;96.50;;;;;;4971331;28;20193;-71
2021/01/13 13:16:49;;;;;;;13.32;2.00;;;8.20;96.50;;;;;;4972747;28;20212;-72
2021/01/13 13:19:16;;;;;;;14.68;2.20;;;8.20;95.90;;;;;;4971667;28;20241;-71
2021/01/13 13:21:42;;;;;;;9.38;2.50;;;8.30;95.80;;;;;;4955611;28;20264;-72